Portada
METAR-TAF:

METAR-TAF

Aeroports :

Fillmore County Airport

Preston, Minnesota, Estats Units d'Amèrica

latitud: 43-40-36N, longitud: 092-10-47W, altitud: 389 m

Observació

L'informe es va fer fa 4 minuts, a les 18:36 UTC
Vent 10 kt del Sud-Oest amb ràfegues de 16 kt
Temperatura 29°C
Humitat 48%
Pressió 1010 hPa
Visibilitat: 11.3 km
Núvols disperses a una alçada de 5500 ft

METAR: KFKA 251836Z AUTO 22010G16KT 7SM SCT055 29/17 A2982 RMK AO2 T02850166

Hora: 13:40 (18:40 UTC)


TAF: manca

Observacions i pronòstics meteorològics de més de 4000 aeroports (METAR i TAF).

Les estacions disponibles són els punts grocs i vermells al mapa.

Posi el ratolí al punt desitjat per veure el nom de l'estació.

Feu clic per veure les observacions i els pronòstics meteorològics.

Per canviar el mapa: feu clic els botons verds amb una creu de color negre per apropar; al botó verd amb un guió per allunyar la imatge; o en les fletxes verdes per a mapes adjacents.


METAR-TAF: